sensor_id;sensor_type;location;lat;lon;timestamp;P1;durP1;ratioP1;P2;durP2;ratioP2
19798;SDS011;10059;59.850;10.454;2023-05-23T00:01:46;13.97;;;9.97;;
19798;SDS011;10059;59.850;10.454;2023-05-23T00:04:13;12.30;;;9.97;;
19798;SDS011;10059;59.850;10.454;2023-05-23T00:06:42;11.50;;;9.50;;
19798;SDS011;10059;59.850;10.454;2023-05-23T00:09:11;11.70;;;9.67;;
19798;SDS011;10059;59.850;10.454;2023-05-23T00:11:38;13.57;;;10.27;;
19798;SDS011;10059;59.850;10.454;2023-05-23T00:14:10;14.40;;;9.90;;
19798;SDS011;10059;59.850;10.454;2023-05-23T00:16:38;13.83;;;9.53;;
19798;SDS011;10059;59.850;10.454;2023-05-23T00:19:06;15.07;;;10.33;;
19798;SDS011;10059;59.850;10.454;2023-05-23T00:21:34;12.00;;;9.43;;
19798;SDS011;10059;59.850;10.454;2023-05-23T00:24:00;15.30;;;10.37;;
19798;SDS011;10059;59.850;10.454;2023-05-23T00:26:28;13.90;;;10.10;;
19798;SDS011;10059;59.850;10.454;2023-05-23T00:28:56;13.53;;;10.20;;
19798;SDS011;10059;59.850;10.454;2023-05-23T00:31:24;13.57;;;9.90;;
19798;SDS011;10059;59.850;10.454;2023-05-23T00:33:51;13.53;;;10.00;;
19798;SDS011;10059;59.850;10.454;2023-05-23T00:36:18;12.93;;;9.83;;
19798;SDS011;10059;59.850;10.454;2023-05-23T00:38:46;14.80;;;9.80;;
19798;SDS011;10059;59.850;10.454;2023-05-23T00:41:13;12.80;;;10.00;;
19798;SDS011;10059;59.850;10.454;2023-05-23T00:43:40;12.63;;;9.93;;
19798;SDS011;10059;59.850;10.454;2023-05-23T00:46:07;13.93;;;10.23;;
19798;SDS011;10059;59.850;10.454;2023-05-23T00:48:36;13.17;;;9.80;;
19798;SDS011;10059;59.850;10.454;2023-05-23T00:51:03;13.10;;;9.93;;
19798;SDS011;10059;59.850;10.454;2023-05-23T00:53:30;13.13;;;10.50;;
19798;SDS011;10059;59.850;10.454;2023-05-23T00:55:58;17.77;;;11.00;;
19798;SDS011;10059;59.850;10.454;2023-05-23T00:58:25;13.87;;;10.97;;
19798;SDS011;10059;59.850;10.454;2023-05-23T01:00:52;14.90;;;11.20;;
19798;SDS011;10059;59.850;10.454;2023-05-23T01:03:19;16.50;;;11.17;;
19798;SDS011;10059;59.850;10.454;2023-05-23T01:05:49;12.97;;;10.63;;
19798;SDS011;10059;59.850;10.454;2023-05-23T01:08:16;15.07;;;11.17;;
19798;SDS011;10059;59.850;10.454;2023-05-23T01:10:42;17.93;;;11.87;;
19798;SDS011;10059;59.850;10.454;2023-05-23T01:13:12;15.23;;;12.00;;
19798;SDS011;10059;59.850;10.454;2023-05-23T01:15:49;14.27;;;10.87;;
19798;SDS011;10059;59.850;10.454;2023-05-23T01:18:32;16.97;;;11.43;;
19798;SDS011;10059;59.850;10.454;2023-05-23T01:21:08;14.17;;;11.50;;
19798;SDS011;10059;59.850;10.454;2023-05-23T01:23:44;14.80;;;11.83;;
19798;SDS011;10059;59.850;10.454;2023-05-23T01:26:30;16.20;;;11.23;;
19798;SDS011;10059;59.850;10.454;2023-05-23T01:29:02;15.53;;;11.53;;
19798;SDS011;10059;59.850;10.454;2023-05-23T01:31:34;16.90;;;11.70;;
19798;SDS011;10059;59.850;10.454;2023-05-23T01:34:04;18.03;;;11.40;;
19798;SDS011;10059;59.850;10.454;2023-05-23T01:36:33;14.90;;;11.47;;
19798;SDS011;10059;59.850;10.454;2023-05-23T01:39:00;16.03;;;11.30;;
19798;SDS011;10059;59.850;10.454;2023-05-23T01:41:27;16.83;;;11.63;;
19798;SDS011;10059;59.850;10.454;2023-05-23T01:43:54;15.57;;;11.67;;
19798;SDS011;10059;59.850;10.454;2023-05-23T01:46:22;15.87;;;11.70;;
19798;SDS011;10059;59.850;10.454;2023-05-23T01:48:50;14.80;;;11.20;;
19798;SDS011;10059;59.850;10.454;2023-05-23T01:51:19;15.53;;;12.03;;
19798;SDS011;10059;59.850;10.454;2023-05-23T01:53:47;13.27;;;10.70;;
19798;SDS011;10059;59.850;10.454;2023-05-23T01:56:14;16.80;;;11.77;;
19798;SDS011;10059;59.850;10.454;2023-05-23T01:58:42;14.23;;;11.10;;
19798;SDS011;10059;59.850;10.454;2023-05-23T02:01:09;15.43;;;11.30;;
19798;SDS011;10059;59.850;10.454;2023-05-23T02:03:38;21.43;;;11.90;;
19798;SDS011;10059;59.850;10.454;2023-05-23T02:06:05;15.20;;;11.50;;
19798;SDS011;10059;59.850;10.454;2023-05-23T02:08:32;15.97;;;11.73;;
19798;SDS011;10059;59.850;10.454;2023-05-23T02:10:58;16.83;;;11.67;;
19798;SDS011;10059;59.850;10.454;2023-05-23T02:13:25;16.77;;;11.00;;
19798;SDS011;10059;59.850;10.454;2023-05-23T02:15:52;13.67;;;11.73;;
19798;SDS011;10059;59.850;10.454;2023-05-23T02:18:19;15.17;;;12.20;;
19798;SDS011;10059;59.850;10.454;2023-05-23T02:20:47;16.23;;;11.83;;
19798;SDS011;10059;59.850;10.454;2023-05-23T02:23:14;13.90;;;10.90;;
19798;SDS011;10059;59.850;10.454;2023-05-23T02:25:41;19.30;;;11.87;;
19798;SDS011;10059;59.850;10.454;2023-05-23T02:28:08;15.13;;;12.10;;
19798;SDS011;10059;59.850;10.454;2023-05-23T02:30:35;18.10;;;11.90;;
19798;SDS011;10059;59.850;10.454;2023-05-23T02:33:03;16.07;;;11.83;;
19798;SDS011;10059;59.850;10.454;2023-05-23T02:35:30;14.60;;;11.67;;
19798;SDS011;10059;59.850;10.454;2023-05-23T02:37:58;15.80;;;12.40;;
19798;SDS011;10059;59.850;10.454;2023-05-23T02:40:25;18.97;;;12.80;;
19798;SDS011;10059;59.850;10.454;2023-05-23T02:42:52;18.60;;;12.67;;
19798;SDS011;10059;59.850;10.454;2023-05-23T02:45:21;17.60;;;12.17;;
19798;SDS011;10059;59.850;10.454;2023-05-23T02:47:48;18.13;;;12.30;;
19798;SDS011;10059;59.850;10.454;2023-05-23T02:50:15;15.93;;;12.13;;
19798;SDS011;10059;59.850;10.454;2023-05-23T02:52:42;14.17;;;11.90;;
19798;SDS011;10059;59.850;10.454;2023-05-23T02:55:10;15.83;;;11.90;;
19798;SDS011;10059;59.850;10.454;2023-05-23T02:57:37;17.07;;;12.40;;
19798;SDS011;10059;59.850;10.454;2023-05-23T03:00:05;17.97;;;12.97;;
19798;SDS011;10059;59.850;10.454;2023-05-23T03:02:33;15.83;;;12.33;;
19798;SDS011;10059;59.850;10.454;2023-05-23T03:05:00;17.70;;;12.77;;
19798;SDS011;10059;59.850;10.454;2023-05-23T03:07:28;17.13;;;12.43;;
19798;SDS011;10059;59.850;10.454;2023-05-23T03:09:58;15.83;;;11.83;;
19798;SDS011;10059;59.850;10.454;2023-05-23T03:12:27;15.13;;;11.90;;
19798;SDS011;10059;59.850;10.454;2023-05-23T03:14:54;15.80;;;12.60;;
19798;SDS011;10059;59.850;10.454;2023-05-23T03:17:23;18.70;;;12.67;;
19798;SDS011;10059;59.850;10.454;2023-05-23T03:19:51;19.30;;;13.03;;
19798;SDS011;10059;59.850;10.454;2023-05-23T03:22:17;18.10;;;12.47;;
19798;SDS011;10059;59.850;10.454;2023-05-23T03:24:44;20.37;;;13.23;;
19798;SDS011;10059;59.850;10.454;2023-05-23T03:27:11;20.57;;;13.53;;
19798;SDS011;10059;59.850;10.454;2023-05-23T03:29:40;22.10;;;13.00;;
19798;SDS011;10059;59.850;10.454;2023-05-23T03:32:06;18.33;;;13.00;;
19798;SDS011;10059;59.850;10.454;2023-05-23T03:34:33;22.50;;;13.97;;
19798;SDS011;10059;59.850;10.454;2023-05-23T03:37:00;20.60;;;13.70;;
19798;SDS011;10059;59.850;10.454;2023-05-23T03:39:28;23.53;;;13.60;;
19798;SDS011;10059;59.850;10.454;2023-05-23T03:41:55;20.43;;;14.77;;
19798;SDS011;10059;59.850;10.454;2023-05-23T03:44:21;19.63;;;14.30;;
19798;SDS011;10059;59.850;10.454;2023-05-23T03:46:49;22.27;;;14.30;;
19798;SDS011;10059;59.850;10.454;2023-05-23T03:49:17;21.17;;;14.10;;
19798;SDS011;10059;59.850;10.454;2023-05-23T03:51:43;21.37;;;14.10;;
19798;SDS011;10059;59.850;10.454;2023-05-23T03:54:10;23.90;;;15.27;;
19798;SDS011;10059;59.850;10.454;2023-05-23T03:56:37;20.57;;;14.47;;
19798;SDS011;10059;59.850;10.454;2023-05-23T03:59:04;19.57;;;14.73;;
19798;SDS011;10059;59.850;10.454;2023-05-23T04:01:31;28.57;;;15.20;;
19798;SDS011;10059;59.850;10.454;2023-05-23T04:03:59;19.50;;;15.10;;
19798;SDS011;10059;59.850;10.454;2023-05-23T04:06:26;19.63;;;14.57;;
19798;SDS011;10059;59.850;10.454;2023-05-23T04:08:55;20.20;;;15.40;;
19798;SDS011;10059;59.850;10.454;2023-05-23T04:11:22;22.90;;;15.00;;
19798;SDS011;10059;59.850;10.454;2023-05-23T04:13:49;21.33;;;14.57;;
19798;SDS011;10059;59.850;10.454;2023-05-23T04:16:16;20.20;;;14.80;;
19798;SDS011;10059;59.850;10.454;2023-05-23T04:18:43;20.30;;;15.57;;
19798;SDS011;10059;59.850;10.454;2023-05-23T04:21:12;24.23;;;15.97;;
19798;SDS011;10059;59.850;10.454;2023-05-23T04:23:39;21.07;;;15.10;;
19798;SDS011;10059;59.850;10.454;2023-05-23T04:26:06;20.63;;;15.83;;
19798;SDS011;10059;59.850;10.454;2023-05-23T04:28:34;20.53;;;15.77;;
19798;SDS011;10059;59.850;10.454;2023-05-23T04:31:01;22.53;;;15.50;;
19798;SDS011;10059;59.850;10.454;2023-05-23T04:33:28;21.17;;;15.73;;
19798;SDS011;10059;59.850;10.454;2023-05-23T04:35:55;20.90;;;16.13;;
19798;SDS011;10059;59.850;10.454;2023-05-23T04:38:23;24.43;;;16.63;;
19798;SDS011;10059;59.850;10.454;2023-05-23T04:40:52;24.77;;;16.67;;
19798;SDS011;10059;59.850;10.454;2023-05-23T04:43:19;24.10;;;16.83;;
19798;SDS011;10059;59.850;10.454;2023-05-23T04:45:46;20.83;;;15.70;;
19798;SDS011;10059;59.850;10.454;2023-05-23T04:48:14;21.30;;;15.30;;
19798;SDS011;10059;59.850;10.454;2023-05-23T04:50:45;23.27;;;16.23;;
19798;SDS011;10059;59.850;10.454;2023-05-23T04:53:15;22.17;;;15.50;;
19798;SDS011;10059;59.850;10.454;2023-05-23T04:55:43;23.43;;;16.20;;
19798;SDS011;10059;59.850;10.454;2023-05-23T04:58:10;21.27;;;15.13;;
19798;SDS011;10059;59.850;10.454;2023-05-23T05:00:37;22.93;;;14.87;;
19798;SDS011;10059;59.850;10.454;2023-05-23T05:03:04;18.33;;;15.03;;
19798;SDS011;10059;59.850;10.454;2023-05-23T05:05:33;19.40;;;14.80;;
19798;SDS011;10059;59.850;10.454;2023-05-23T05:08:00;21.37;;;15.03;;
19798;SDS011;10059;59.850;10.454;2023-05-23T05:10:27;19.80;;;14.73;;
19798;SDS011;10059;59.850;10.454;2023-05-23T05:12:55;21.20;;;15.50;;
19798;SDS011;10059;59.850;10.454;2023-05-23T05:15:22;19.40;;;14.27;;
19798;SDS011;10059;59.850;10.454;2023-05-23T05:17:49;20.73;;;14.20;;
19798;SDS011;10059;59.850;10.454;2023-05-23T05:20:16;23.07;;;15.23;;
19798;SDS011;10059;59.850;10.454;2023-05-23T05:22:44;20.20;;;14.63;;
19798;SDS011;10059;59.850;10.454;2023-05-23T05:25:11;18.23;;;14.57;;
19798;SDS011;10059;59.850;10.454;2023-05-23T05:27:38;19.40;;;15.03;;
19798;SDS011;10059;59.850;10.454;2023-05-23T05:30:07;21.50;;;14.97;;
19798;SDS011;10059;59.850;10.454;2023-05-23T05:32:35;19.67;;;15.40;;
19798;SDS011;10059;59.850;10.454;2023-05-23T05:35:02;19.93;;;14.77;;
19798;SDS011;10059;59.850;10.454;2023-05-23T05:37:29;19.67;;;14.83;;
19798;SDS011;10059;59.850;10.454;2023-05-23T05:39:56;23.07;;;14.03;;
19798;SDS011;10059;59.850;10.454;2023-05-23T05:42:23;16.37;;;12.33;;
19798;SDS011;10059;59.850;10.454;2023-05-23T05:44:50;14.00;;;10.57;;
19798;SDS011;10059;59.850;10.454;2023-05-23T05:47:18;14.97;;;9.93;;
19798;SDS011;10059;59.850;10.454;2023-05-23T05:49:45;8.83;;;7.73;;
19798;SDS011;10059;59.850;10.454;2023-05-23T05:52:11;7.60;;;6.63;;
19798;SDS011;10059;59.850;10.454;2023-05-23T05:54:38;6.40;;;5.53;;
19798;SDS011;10059;59.850;10.454;2023-05-23T05:57:05;9.07;;;6.43;;
19798;SDS011;10059;59.850;10.454;2023-05-23T05:59:32;7.00;;;4.60;;
19798;SDS011;10059;59.850;10.454;2023-05-23T06:01:59;6.47;;;4.03;;
19798;SDS011;10059;59.850;10.454;2023-05-23T06:04:27;4.00;;;3.60;;
19798;SDS011;10059;59.850;10.454;2023-05-23T06:06:55;4.17;;;3.60;;
19798;SDS011;10059;59.850;10.454;2023-05-23T06:09:21;3.87;;;3.40;;
19798;SDS011;10059;59.850;10.454;2023-05-23T06:11:48;3.40;;;3.10;;
19798;SDS011;10059;59.850;10.454;2023-05-23T06:14:15;4.50;;;3.30;;
19798;SDS011;10059;59.850;10.454;2023-05-23T06:16:42;4.47;;;3.57;;
19798;SDS011;10059;59.850;10.454;2023-05-23T06:19:09;4.30;;;3.23;;
19798;SDS011;10059;59.850;10.454;2023-05-23T06:21:37;5.23;;;3.20;;
19798;SDS011;10059;59.850;10.454;2023-05-23T06:24:04;4.87;;;3.10;;
19798;SDS011;10059;59.850;10.454;2023-05-23T06:26:31;5.30;;;3.50;;
19798;SDS011;10059;59.850;10.454;2023-05-23T06:28:58;7.30;;;3.47;;
19798;SDS011;10059;59.850;10.454;2023-05-23T06:31:25;4.43;;;3.33;;
19798;SDS011;10059;59.850;10.454;2023-05-23T06:33:52;4.13;;;3.40;;
19798;SDS011;10059;59.850;10.454;2023-05-23T06:36:19;6.07;;;3.87;;
19798;SDS011;10059;59.850;10.454;2023-05-23T06:38:47;4.33;;;3.50;;
19798;SDS011;10059;59.850;10.454;2023-05-23T06:41:14;5.93;;;3.03;;
19798;SDS011;10059;59.850;10.454;2023-05-23T06:43:41;6.47;;;3.60;;
19798;SDS011;10059;59.850;10.454;2023-05-23T06:46:08;4.60;;;3.60;;
19798;SDS011;10059;59.850;10.454;2023-05-23T06:48:35;4.40;;;3.40;;
19798;SDS011;10059;59.850;10.454;2023-05-23T06:51:01;6.97;;;4.23;;
19798;SDS011;10059;59.850;10.454;2023-05-23T06:53:28;5.73;;;3.90;;
19798;SDS011;10059;59.850;10.454;2023-05-23T06:55:56;4.63;;;4.00;;
19798;SDS011;10059;59.850;10.454;2023-05-23T06:58:23;9.20;;;4.00;;
19798;SDS011;10059;59.850;10.454;2023-05-23T07:00:51;5.23;;;4.03;;
19798;SDS011;10059;59.850;10.454;2023-05-23T07:03:17;5.77;;;3.83;;
19798;SDS011;10059;59.850;10.454;2023-05-23T07:05:44;5.50;;;3.30;;
19798;SDS011;10059;59.850;10.454;2023-05-23T07:08:11;4.63;;;3.40;;
19798;SDS011;10059;59.850;10.454;2023-05-23T07:10:38;4.60;;;3.80;;
19798;SDS011;10059;59.850;10.454;2023-05-23T07:13:06;3.90;;;3.37;;
19798;SDS011;10059;59.850;10.454;2023-05-23T07:15:33;5.40;;;3.60;;
19798;SDS011;10059;59.850;10.454;2023-05-23T07:18:00;5.03;;;3.60;;
19798;SDS011;10059;59.850;10.454;2023-05-23T07:20:28;5.13;;;3.60;;
19798;SDS011;10059;59.850;10.454;2023-05-23T07:22:55;4.83;;;3.60;;
19798;SDS011;10059;59.850;10.454;2023-05-23T07:25:22;4.47;;;3.50;;
19798;SDS011;10059;59.850;10.454;2023-05-23T07:27:49;5.50;;;3.50;;
19798;SDS011;10059;59.850;10.454;2023-05-23T07:30:20;4.13;;;3.47;;
19798;SDS011;10059;59.850;10.454;2023-05-23T07:32:47;6.20;;;3.53;;
19798;SDS011;10059;59.850;10.454;2023-05-23T07:35:14;4.13;;;3.43;;
19798;SDS011;10059;59.850;10.454;2023-05-23T07:37:41;7.67;;;4.00;;
19798;SDS011;10059;59.850;10.454;2023-05-23T07:40:08;7.67;;;3.50;;
19798;SDS011;10059;59.850;10.454;2023-05-23T07:42:35;6.43;;;3.50;;
19798;SDS011;10059;59.850;10.454;2023-05-23T07:45:02;4.87;;;3.53;;
19798;SDS011;10059;59.850;10.454;2023-05-23T07:47:31;6.77;;;3.50;;
19798;SDS011;10059;59.850;10.454;2023-05-23T07:49:58;4.97;;;3.37;;
19798;SDS011;10059;59.850;10.454;2023-05-23T07:52:28;5.23;;;3.50;;
19798;SDS011;10059;59.850;10.454;2023-05-23T07:54:55;4.93;;;3.40;;
19798;SDS011;10059;59.850;10.454;2023-05-23T07:57:22;4.63;;;2.90;;
19798;SDS011;10059;59.850;10.454;2023-05-23T07:59:49;5.37;;;3.30;;
19798;SDS011;10059;59.850;10.454;2023-05-23T08:02:17;3.93;;;2.90;;
19798;SDS011;10059;59.850;10.454;2023-05-23T08:04:46;4.37;;;2.93;;
19798;SDS011;10059;59.850;10.454;2023-05-23T08:07:14;4.80;;;2.60;;
19798;SDS011;10059;59.850;10.454;2023-05-23T08:09:41;4.53;;;3.20;;
19798;SDS011;10059;59.850;10.454;2023-05-23T08:12:08;5.87;;;3.00;;
19798;SDS011;10059;59.850;10.454;2023-05-23T08:14:35;5.97;;;2.87;;
19798;SDS011;10059;59.850;10.454;2023-05-23T08:17:02;5.07;;;3.10;;
19798;SDS011;10059;59.850;10.454;2023-05-23T08:19:29;8.07;;;3.00;;
19798;SDS011;10059;59.850;10.454;2023-05-23T08:21:57;3.80;;;2.80;;
19798;SDS011;10059;59.850;10.454;2023-05-23T08:24:24;4.20;;;3.07;;
19798;SDS011;10059;59.850;10.454;2023-05-23T08:26:51;3.40;;;3.00;;
19798;SDS011;10059;59.850;10.454;2023-05-23T08:29:17;5.17;;;3.03;;
19798;SDS011;10059;59.850;10.454;2023-05-23T08:31:44;3.93;;;3.00;;
19798;SDS011;10059;59.850;10.454;2023-05-23T08:34:11;4.60;;;3.20;;
19798;SDS011;10059;59.850;10.454;2023-05-23T08:36:38;4.87;;;3.50;;
19798;SDS011;10059;59.850;10.454;2023-05-23T08:39:08;4.57;;;3.13;;
19798;SDS011;10059;59.850;10.454;2023-05-23T08:41:35;4.37;;;3.50;;
19798;SDS011;10059;59.850;10.454;2023-05-23T08:44:02;3.60;;;2.70;;
19798;SDS011;10059;59.850;10.454;2023-05-23T08:46:29;4.50;;;3.00;;
19798;SDS011;10059;59.850;10.454;2023-05-23T08:49:01;3.83;;;3.00;;
19798;SDS011;10059;59.850;10.454;2023-05-23T08:51:28;5.47;;;3.00;;
19798;SDS011;10059;59.850;10.454;2023-05-23T08:53:55;9.83;;;5.07;;
19798;SDS011;10059;59.850;10.454;2023-05-23T08:56:24;6.30;;;3.70;;
19798;SDS011;10059;59.850;10.454;2023-05-23T08:58:52;4.50;;;3.40;;
19798;SDS011;10059;59.850;10.454;2023-05-23T09:01:19;4.53;;;4.03;;
19798;SDS011;10059;59.850;10.454;2023-05-23T09:03:47;4.67;;;3.70;;
19798;SDS011;10059;59.850;10.454;2023-05-23T09:06:15;4.47;;;3.60;;
19798;SDS011;10059;59.850;10.454;2023-05-23T09:08:42;4.27;;;3.57;;
19798;SDS011;10059;59.850;10.454;2023-05-23T09:11:10;3.93;;;3.53;;
19798;SDS011;10059;59.850;10.454;2023-05-23T09:13:40;4.60;;;3.17;;
19798;SDS011;10059;59.850;10.454;2023-05-23T09:16:08;7.10;;;3.83;;
19798;SDS011;10059;59.850;10.454;2023-05-23T09:18:37;7.47;;;3.50;;
19798;SDS011;10059;59.850;10.454;2023-05-23T09:21:05;5.43;;;3.40;;
19798;SDS011;10059;59.850;10.454;2023-05-23T09:23:33;3.80;;;3.37;;
19798;SDS011;10059;59.850;10.454;2023-05-23T09:26:02;4.87;;;3.57;;
19798;SDS011;10059;59.850;10.454;2023-05-23T09:28:29;5.50;;;3.50;;
19798;SDS011;10059;59.850;10.454;2023-05-23T09:31:00;6.80;;;3.53;;
19798;SDS011;10059;59.850;10.454;2023-05-23T09:33:32;3.97;;;3.57;;
19798;SDS011;10059;59.850;10.454;2023-05-23T09:36:02;3.60;;;3.27;;
19798;SDS011;10059;59.850;10.454;2023-05-23T09:38:29;4.50;;;3.40;;
19798;SDS011;10059;59.850;10.454;2023-05-23T09:40:57;4.67;;;3.50;;
19798;SDS011;10059;59.850;10.454;2023-05-23T09:43:24;4.23;;;3.30;;
19798;SDS011;10059;59.850;10.454;2023-05-23T09:45:53;4.33;;;3.60;;
19798;SDS011;10059;59.850;10.454;2023-05-23T09:48:28;6.10;;;3.43;;
19798;SDS011;10059;59.850;10.454;2023-05-23T09:50:56;5.43;;;3.60;;
19798;SDS011;10059;59.850;10.454;2023-05-23T09:53:23;4.67;;;3.50;;
19798;SDS011;10059;59.850;10.454;2023-05-23T09:55:50;4.20;;;3.50;;
19798;SDS011;10059;59.850;10.454;2023-05-23T09:58:18;3.97;;;3.40;;
19798;SDS011;10059;59.850;10.454;2023-05-23T10:00:47;5.40;;;3.30;;
19798;SDS011;10059;59.850;10.454;2023-05-23T10:03:16;4.77;;;3.17;;
19798;SDS011;10059;59.850;10.454;2023-05-23T10:05:51;6.13;;;3.47;;
19798;SDS011;10059;59.850;10.454;2023-05-23T10:08:23;3.83;;;3.43;;
19798;SDS011;10059;59.850;10.454;2023-05-23T10:14:06;3.60;;;3.27;;
19798;SDS011;10059;59.850;10.454;2023-05-23T10:16:37;3.87;;;3.47;;
19798;SDS011;10059;59.850;10.454;2023-05-23T10:19:10;4.40;;;3.17;;
19798;SDS011;10059;59.850;10.454;2023-05-23T10:21:48;7.07;;;3.57;;
19798;SDS011;10059;59.850;10.454;2023-05-23T10:24:20;5.07;;;3.30;;
19798;SDS011;10059;59.850;10.454;2023-05-23T10:26:47;5.80;;;3.30;;
19798;SDS011;10059;59.850;10.454;2023-05-23T10:29:14;5.43;;;3.47;;
19798;SDS011;10059;59.850;10.454;2023-05-23T10:31:41;3.73;;;3.30;;
19798;SDS011;10059;59.850;10.454;2023-05-23T10:34:11;3.87;;;3.47;;
19798;SDS011;10059;59.850;10.454;2023-05-23T10:36:47;3.93;;;3.53;;
19798;SDS011;10059;59.850;10.454;2023-05-23T10:39:29;4.20;;;3.40;;
19798;SDS011;10059;59.850;10.454;2023-05-23T10:42:01;4.40;;;3.67;;
19798;SDS011;10059;59.850;10.454;2023-05-23T10:44:32;5.80;;;3.70;;
19798;SDS011;10059;59.850;10.454;2023-05-23T10:46:59;4.90;;;3.67;;
19798;SDS011;10059;59.850;10.454;2023-05-23T10:52:18;4.37;;;3.90;;
19798;SDS011;10059;59.850;10.454;2023-05-23T10:54:45;4.83;;;3.83;;
19798;SDS011;10059;59.850;10.454;2023-05-23T10:57:15;4.30;;;3.90;;
19798;SDS011;10059;59.850;10.454;2023-05-23T10:59:43;5.00;;;4.03;;
19798;SDS011;10059;59.850;10.454;2023-05-23T11:02:12;4.93;;;4.00;;
19798;SDS011;10059;59.850;10.454;2023-05-23T11:08:01;4.40;;;4.00;;
19798;SDS011;10059;59.850;10.454;2023-05-23T11:10:32;4.80;;;4.10;;
19798;SDS011;10059;59.850;10.454;2023-05-23T11:13:16;5.20;;;3.73;;
19798;SDS011;10059;59.850;10.454;2023-05-23T11:15:44;4.00;;;3.47;;
19798;SDS011;10059;59.850;10.454;2023-05-23T11:18:18;4.47;;;3.53;;
19798;SDS011;10059;59.850;10.454;2023-05-23T11:20:46;3.93;;;3.47;;
19798;SDS011;10059;59.850;10.454;2023-05-23T11:23:19;5.10;;;3.70;;
19798;SDS011;10059;59.850;10.454;2023-05-23T11:25:47;4.50;;;3.70;;
19798;SDS011;10059;59.850;10.454;2023-05-23T11:28:15;4.00;;;3.40;;
19798;SDS011;10059;59.850;10.454;2023-05-23T11:30:43;5.37;;;3.90;;
19798;SDS011;10059;59.850;10.454;2023-05-23T11:33:13;3.97;;;3.40;;
19798;SDS011;10059;59.850;10.454;2023-05-23T11:35:41;3.33;;;3.00;;
19798;SDS011;10059;59.850;10.454;2023-05-23T11:38:08;4.23;;;3.30;;
19798;SDS011;10059;59.850;10.454;2023-05-23T11:40:38;4.00;;;3.10;;
19798;SDS011;10059;59.850;10.454;2023-05-23T11:43:06;4.10;;;2.90;;
19798;SDS011;10059;59.850;10.454;2023-05-23T11:45:34;4.50;;;2.70;;
19798;SDS011;10059;59.850;10.454;2023-05-23T11:48:05;3.17;;;2.80;;
19798;SDS011;10059;59.850;10.454;2023-05-23T11:50:33;5.10;;;3.13;;
19798;SDS011;10059;59.850;10.454;2023-05-23T11:53:08;3.23;;;2.90;;
19798;SDS011;10059;59.850;10.454;2023-05-23T11:55:34;3.13;;;2.50;;
19798;SDS011;10059;59.850;10.454;2023-05-23T11:58:13;4.40;;;2.93;;
19798;SDS011;10059;59.850;10.454;2023-05-23T12:00:43;4.33;;;2.70;;
19798;SDS011;10059;59.850;10.454;2023-05-23T12:03:10;4.27;;;2.53;;
19798;SDS011;10059;59.850;10.454;2023-05-23T12:05:37;2.67;;;2.40;;
19798;SDS011;10059;59.850;10.454;2023-05-23T12:08:04;2.97;;;2.50;;
19798;SDS011;10059;59.850;10.454;2023-05-23T12:10:31;2.67;;;2.37;;
19798;SDS011;10059;59.850;10.454;2023-05-23T12:12:59;2.43;;;2.23;;
19798;SDS011;10059;59.850;10.454;2023-05-23T12:15:26;3.13;;;2.50;;
19798;SDS011;10059;59.850;10.454;2023-05-23T12:17:55;4.07;;;2.30;;
19798;SDS011;10059;59.850;10.454;2023-05-23T12:20:24;3.23;;;2.20;;
19798;SDS011;10059;59.850;10.454;2023-05-23T12:22:52;2.60;;;2.40;;
19798;SDS011;10059;59.850;10.454;2023-05-23T12:25:19;3.73;;;2.27;;
19798;SDS011;10059;59.850;10.454;2023-05-23T12:27:47;3.33;;;2.40;;
19798;SDS011;10059;59.850;10.454;2023-05-23T12:30:15;2.80;;;2.40;;
19798;SDS011;10059;59.850;10.454;2023-05-23T12:32:44;3.37;;;2.50;;
19798;SDS011;10059;59.850;10.454;2023-05-23T12:35:12;2.60;;;2.40;;
19798;SDS011;10059;59.850;10.454;2023-05-23T12:37:40;2.90;;;2.57;;
19798;SDS011;10059;59.850;10.454;2023-05-23T12:40:11;3.03;;;2.20;;
19798;SDS011;10059;59.850;10.454;2023-05-23T12:42:51;3.30;;;2.43;;
19798;SDS011;10059;59.850;10.454;2023-05-23T12:45:20;6.37;;;2.80;;
19798;SDS011;10059;59.850;10.454;2023-05-23T12:47:48;3.60;;;2.60;;
19798;SDS011;10059;59.850;10.454;2023-05-23T12:50:15;3.67;;;2.60;;
19798;SDS011;10059;59.850;10.454;2023-05-23T12:52:42;5.03;;;2.80;;
19798;SDS011;10059;59.850;10.454;2023-05-23T12:55:09;2.80;;;2.20;;
19798;SDS011;10059;59.850;10.454;2023-05-23T12:57:38;2.57;;;2.13;;
19798;SDS011;10059;59.850;10.454;2023-05-23T13:00:05;3.60;;;2.20;;
19798;SDS011;10059;59.850;10.454;2023-05-23T13:02:34;2.63;;;2.17;;
19798;SDS011;10059;59.850;10.454;2023-05-23T13:05:01;4.93;;;2.60;;
19798;SDS011;10059;59.850;10.454;2023-05-23T13:07:28;3.07;;;2.40;;
19798;SDS011;10059;59.850;10.454;2023-05-23T13:09:55;6.73;;;2.33;;
19798;SDS011;10059;59.850;10.454;2023-05-23T13:12:22;2.50;;;2.03;;
19798;SDS011;10059;59.850;10.454;2023-05-23T13:14:49;2.83;;;2.50;;
19798;SDS011;10059;59.850;10.454;2023-05-23T13:17:16;2.80;;;2.13;;
19798;SDS011;10059;59.850;10.454;2023-05-23T13:19:44;3.77;;;2.30;;
19798;SDS011;10059;59.850;10.454;2023-05-23T13:22:11;4.90;;;2.20;;
19798;SDS011;10059;59.850;10.454;2023-05-23T13:24:38;3.40;;;2.00;;
19798;SDS011;10059;59.850;10.454;2023-05-23T13:27:07;3.17;;;2.17;;
19798;SDS011;10059;59.850;10.454;2023-05-23T13:29:34;3.77;;;2.30;;
19798;SDS011;10059;59.850;10.454;2023-05-23T13:32:01;3.17;;;2.27;;
19798;SDS011;10059;59.850;10.454;2023-05-23T13:34:28;4.37;;;2.20;;
19798;SDS011;10059;59.850;10.454;2023-05-23T13:36:56;2.90;;;2.03;;
19798;SDS011;10059;59.850;10.454;2023-05-23T13:39:22;2.03;;;1.83;;
19798;SDS011;10059;59.850;10.454;2023-05-23T13:41:49;2.27;;;1.90;;
19798;SDS011;10059;59.850;10.454;2023-05-23T13:44:16;2.20;;;1.67;;
19798;SDS011;10059;59.850;10.454;2023-05-23T13:46:43;4.67;;;1.70;;
19798;SDS011;10059;59.850;10.454;2023-05-23T13:49:10;3.50;;;1.70;;
19798;SDS011;10059;59.850;10.454;2023-05-23T13:51:37;1.37;;;1.20;;
19798;SDS011;10059;59.850;10.454;2023-05-23T13:54:05;2.40;;;1.50;;
19798;SDS011;10059;59.850;10.454;2023-05-23T13:56:32;3.87;;;1.40;;
19798;SDS011;10059;59.850;10.454;2023-05-23T13:59:00;1.33;;;1.20;;
19798;SDS011;10059;59.850;10.454;2023-05-23T14:01:27;2.90;;;1.40;;
19798;SDS011;10059;59.850;10.454;2023-05-23T14:03:53;2.17;;;1.50;;
19798;SDS011;10059;59.850;10.454;2023-05-23T14:06:20;2.13;;;1.13;;
19798;SDS011;10059;59.850;10.454;2023-05-23T14:08:47;3.23;;;1.40;;
19798;SDS011;10059;59.850;10.454;2023-05-23T14:11:15;1.87;;;1.33;;
19798;SDS011;10059;59.850;10.454;2023-05-23T14:13:42;4.70;;;1.27;;
19798;SDS011;10059;59.850;10.454;2023-05-23T14:16:09;4.70;;;1.13;;
19798;SDS011;10059;59.850;10.454;2023-05-23T14:18:36;1.43;;;1.10;;
19798;SDS011;10059;59.850;10.454;2023-05-23T14:21:03;1.10;;;1.00;;
19798;SDS011;10059;59.850;10.454;2023-05-23T14:23:30;1.23;;;1.10;;
19798;SDS011;10059;59.850;10.454;2023-05-23T14:25:56;1.30;;;1.10;;
19798;SDS011;10059;59.850;10.454;2023-05-23T14:28:25;1.30;;;1.10;;
19798;SDS011;10059;59.850;10.454;2023-05-23T14:30:52;3.00;;;1.30;;
19798;SDS011;10059;59.850;10.454;2023-05-23T14:33:19;4.07;;;1.43;;
19798;SDS011;10059;59.850;10.454;2023-05-23T14:35:46;2.80;;;1.40;;
19798;SDS011;10059;59.850;10.454;2023-05-23T14:38:14;1.30;;;1.20;;